Time;durP1;ratioP1;P1;durP2;ratioP2;P2;SDS_P1;SDS_P2;PMS_P1;PMS_P2;Temp;Humidity;BMP_temperature;BMP_pressure;BME280_temperature;BME280_humidity;BME280_pressure;Samples;Min_cycle;Max_cycle;Signal;HPM_P1;HPM_P2
2023/06/26 00:00:28;;;;;;;1.30;0.98;;;;;;;17.93;52.71;100041.59;5043965;28;20048;-43
2023/06/26 00:02:55;;;;;;;2.22;0.50;;;;;;;17.87;52.89;100052.31;5042970;28;20110;-45
2023/06/26 00:05:21;;;;;;;0.85;0.50;;;;;;;17.81;52.30;100055.13;5038754;28;20095;-43
2023/06/26 00:07:48;;;;;;;2.45;0.52;;;;;;;17.78;52.71;100052.59;5045170;28;20045;-43
2023/06/26 00:10:15;;;;;;;2.63;0.50;;;;;;;17.75;53.35;100056.16;5040303;28;20092;-44
2023/06/26 00:12:41;;;;;;;3.08;0.75;;;;;;;17.72;52.64;100054.50;5045110;28;20059;-42
2023/06/26 00:15:08;;;;;;;2.05;0.90;;;;;;;17.68;53.70;100058.13;5045377;28;20099;-43
2023/06/26 00:17:37;;;;;;;1.52;0.40;;;;;;;17.67;53.36;100051.16;5039135;28;20050;-44
2023/06/26 00:20:05;;;;;;;2.75;1.83;;;;;;;17.64;53.75;100061.75;5041632;28;20476;-43
2023/06/26 00:22:32;;;;;;;1.88;0.75;;;;;;;17.60;54.13;100058.38;5040445;28;20052;-43
2023/06/26 00:24:58;;;;;;;2.72;1.10;;;;;;;17.57;53.65;100065.47;5045460;28;20044;-42
2023/06/26 00:27:25;;;;;;;3.55;0.95;;;;;;;17.53;54.20;100069.09;5041963;28;20103;-44
2023/06/26 00:29:53;;;;;;;3.75;0.90;;;;;;;17.47;54.15;100064.91;5037379;28;20053;-46
2023/06/26 00:32:19;;;;;;;3.88;1.38;;;;;;;17.45;54.31;100066.72;5043423;28;20044;-44
2023/06/26 00:34:46;;;;;;;1.70;0.68;;;;;;;17.40;54.63;100064.25;5041944;28;20037;-44
2023/06/26 00:37:13;;;;;;;3.72;0.95;;;;;;;17.38;54.32;100065.19;5039419;28;20049;-42
2023/06/26 00:39:41;;;;;;;3.30;1.02;;;;;;;17.34;54.04;100069.66;5042912;28;20111;-43
2023/06/26 00:42:08;;;;;;;2.40;0.80;;;;;;;17.29;54.97;100066.34;5036955;28;20111;-43
2023/06/26 00:44:35;;;;;;;3.97;0.82;;;;;;;17.28;54.67;100059.38;5044828;28;20539;-43
2023/06/26 00:47:02;;;;;;;3.55;1.17;;;;;;;17.25;54.56;100062.94;5039516;28;20041;-43
2023/06/26 00:49:28;;;;;;;2.78;1.08;;;;;;;17.23;55.19;100071.75;5039398;28;20053;-45
2023/06/26 00:51:56;;;;;;;1.80;0.98;;;;;;;17.19;54.83;100079.69;5042351;28;20049;-42
2023/06/26 00:54:23;;;;;;;1.73;0.65;;;;;;;17.15;55.90;100085.06;5041748;28;20055;-45
2023/06/26 00:56:49;;;;;;;3.50;1.08;;;;;;;17.13;55.41;100087.75;5038878;28;20045;-43
2023/06/26 00:59:16;;;;;;;3.10;0.85;;;;;;;17.10;55.70;100082.59;5048866;28;20137;-43
2023/06/26 01:01:43;;;;;;;4.43;1.15;;;;;;;17.09;55.38;100086.09;5038914;28;20040;-43
2023/06/26 01:04:17;;;;;;;1.63;0.68;;;;;;;17.06;55.72;100086.22;5047395;28;20044;-42
2023/06/26 01:06:49;;;;;;;1.77;0.63;;;;;;;17.04;55.37;100082.72;5046838;28;20045;-42
2023/06/26 01:09:18;;;;;;;3.45;1.65;;;;;;;17.01;55.64;100088.03;5041712;28;20040;-43
2023/06/26 01:11:45;;;;;;;3.85;0.80;;;;;;;16.96;56.18;100096.03;5044279;28;20041;-42
2023/06/26 01:14:13;;;;;;;6.68;0.90;;;;;;;16.91;56.10;100096.16;5046483;28;20048;-44
2023/06/26 01:16:41;;;;;;;5.03;0.82;;;;;;;16.87;55.85;100096.28;5041504;28;20056;-44
2023/06/26 01:19:13;;;;;;;4.78;0.98;;;;;;;16.85;56.41;100098.94;5037055;28;20049;-42
2023/06/26 01:21:44;;;;;;;2.30;1.50;;;;;;;16.80;56.21;100096.47;5038887;28;20583;-42
2023/06/26 01:24:20;;;;;;;3.33;1.17;;;;;;;16.75;56.03;100097.50;5044561;28;20045;-43
2023/06/26 01:26:50;;;;;;;2.95;1.15;;;;;;;16.75;56.50;100102.75;5032820;28;20514;-43
2023/06/26 01:29:19;;;;;;;3.67;1.13;;;;;;;16.72;56.94;100108.06;5042425;28;20056;-42
2023/06/26 01:31:49;;;;;;;2.55;0.75;;;;;;;16.70;56.51;100105.47;5039827;28;20496;-41
2023/06/26 01:34:17;;;;;;;7.00;1.00;;;;;;;16.68;56.88;100113.34;5039942;28;20037;-43
2023/06/26 01:36:45;;;;;;;2.17;0.88;;;;;;;16.65;56.73;100105.59;5042180;28;20067;-43
2023/06/26 01:39:16;;;;;;;4.82;1.73;;;;;;;16.63;56.78;100104.78;5040893;28;20048;-43
2023/06/26 01:41:43;;;;;;;3.00;1.08;;;;;;;16.62;56.54;100107.44;5044775;28;20056;-42
2023/06/26 01:49:48;;;;;;;5.20;0.90;;;;;;;16.43;57.65;100129.72;5044588;27;20409;-43
2023/06/26 01:57:47;;;;;;;5.68;2.17;;;;;;;16.42;57.54;100122.75;5045956;28;20405;-43
2023/06/26 02:00:17;;;;;;;5.03;2.65;;;;;;;16.41;57.55;100126.25;5008693;28;20096;-43
2023/06/26 02:02:44;;;;;;;5.72;2.20;;;;;;;16.37;57.43;100119.41;4997427;28;20134;-42
2023/06/26 02:05:12;;;;;;;3.80;1.98;;;;;;;16.36;57.09;100128.16;4999616;28;20398;-43
2023/06/26 02:07:39;;;;;;;3.78;1.60;;;;;;;16.34;57.32;100123.84;4996688;28;20512;-42
2023/06/26 02:10:06;;;;;;;2.60;2.03;;;;;;;16.33;57.49;100123.00;5000146;28;20457;-43
2023/06/26 02:12:35;;;;;;;6.82;1.85;;;;;;;16.30;57.99;100126.53;4997723;28;20112;-42
2023/06/26 02:15:02;;;;;;;2.22;1.77;;;;;;;16.28;57.17;100130.09;4998002;28;20133;-43
2023/06/26 02:17:29;;;;;;;4.78;2.50;;;;;;;16.25;57.97;100125.78;5001541;28;20060;-42
2023/06/26 02:19:56;;;;;;;3.50;1.73;;;;;;;16.23;57.66;100119.75;5000829;28;20046;-42
2023/06/26 02:22:23;;;;;;;3.20;2.22;;;;;;;16.19;57.68;100126.78;5000734;28;20046;-42
2023/06/26 02:24:50;;;;;;;8.68;2.33;;;;;;;16.17;57.82;100125.13;5002916;28;20061;-43
2023/06/26 02:27:16;;;;;;;4.38;2.15;;;;;;;16.14;57.49;100131.28;5003638;28;20046;-41
2023/06/26 02:29:43;;;;;;;3.45;2.10;;;;;;;16.11;58.14;100128.75;5002831;28;20053;-43
2023/06/26 02:32:10;;;;;;;3.13;2.03;;;;;;;16.09;58.12;100132.28;4987220;28;20066;-43
2023/06/26 02:34:37;;;;;;;2.88;2.38;;;;;;;16.06;57.78;100128.00;4981763;28;20061;-42
2023/06/26 02:37:06;;;;;;;4.82;2.25;;;;;;;16.03;58.13;100125.47;4982764;28;20410;-43
2023/06/26 02:39:34;;;;;;;4.22;1.95;;;;;;;15.99;58.13;100129.91;4982249;28;20073;-42
2023/06/26 02:42:01;;;;;;;3.92;3.08;;;;;;;15.96;58.46;100134.34;4980918;28;20056;-44
2023/06/26 02:44:27;;;;;;;3.17;2.78;;;;;;;15.93;58.45;100135.25;4982029;28;20047;-42
2023/06/26 02:46:54;;;;;;;4.40;2.95;;;;;;;15.89;58.53;100134.47;4976453;28;20042;-43
2023/06/26 02:49:21;;;;;;;4.00;2.25;;;;;;;15.85;58.54;100138.03;4980407;28;20569;-42
2023/06/26 02:51:49;;;;;;;5.18;2.25;;;;;;;15.81;58.61;100136.41;4981739;28;20062;-43
2023/06/26 02:54:16;;;;;;;2.95;2.55;;;;;;;15.77;59.27;100134.75;4982437;28;20097;-43
2023/06/26 02:56:43;;;;;;;2.80;2.33;;;;;;;15.74;59.06;100137.44;4979410;28;20133;-42
2023/06/26 02:59:14;;;;;;;4.40;2.15;;;;;;;15.72;59.12;100136.59;4981819;28;20043;-42
2023/06/26 03:01:40;;;;;;;2.97;1.65;;;;;;;15.67;59.25;100140.16;4972458;28;20061;-42
2023/06/26 03:04:08;;;;;;;4.03;1.75;;;;;;;15.66;59.12;100142.81;4981101;28;20406;-42
2023/06/26 03:06:34;;;;;;;6.00;2.35;;;;;;;15.63;59.48;100138.53;4980964;28;20457;-42
2023/06/26 03:09:02;;;;;;;3.15;2.60;;;;;;;15.61;59.40;100129.88;4968394;28;20059;-42
2023/06/26 03:11:29;;;;;;;4.72;1.92;;;;;;;15.59;59.12;100142.09;4968377;28;20054;-42
2023/06/26 03:13:55;;;;;;;3.15;2.05;;;;;;;15.58;59.21;100137.78;4965969;28;20498;-42
2023/06/26 03:16:22;;;;;;;4.45;2.65;;;;;;;15.54;59.28;100133.53;4968137;28;20043;-42
2023/06/26 03:18:48;;;;;;;3.53;2.15;;;;;;;15.53;59.82;100139.63;4968403;28;20069;-42
2023/06/26 03:21:15;;;;;;;3.42;1.88;;;;;;;15.48;59.65;100138.88;4966792;28;20043;-40
2023/06/26 03:23:42;;;;;;;4.45;2.40;;;;;;;15.46;59.86;100140.63;4969909;28;20538;-42
2023/06/26 03:26:08;;;;;;;5.10;2.22;;;;;;;15.43;59.94;100149.41;4968897;28;20048;-43
2023/06/26 03:28:35;;;;;;;4.15;2.40;;;;;;;15.40;59.87;100155.53;4967232;28;20098;-41
2023/06/26 03:31:02;;;;;;;3.83;2.65;;;;;;;15.36;59.90;100146.06;4968332;28;20048;-42
2023/06/26 03:33:28;;;;;;;5.55;2.67;;;;;;;15.34;60.12;100154.81;4967762;28;20503;-42
2023/06/26 03:35:55;;;;;;;2.50;1.98;;;;;;;15.29;60.20;100149.69;4963550;28;20051;-43
2023/06/26 03:38:22;;;;;;;3.53;2.00;;;;;;;15.28;60.43;100158.41;4967135;28;20049;-42
2023/06/26 03:40:48;;;;;;;4.07;2.03;;;;;;;15.25;60.25;100161.09;4960738;28;20055;-43
2023/06/26 03:43:15;;;;;;;4.47;1.83;;;;;;;15.23;60.60;100161.09;4968077;28;20054;-42
2023/06/26 03:45:42;;;;;;;2.78;2.47;;;;;;;15.20;60.51;100166.38;4944826;28;20098;-42
2023/06/26 03:48:08;;;;;;;6.25;1.90;;;;;;;15.21;60.63;100172.47;4959773;28;20057;-41
2023/06/26 03:50:35;;;;;;;5.25;2.67;;;;;;;15.18;60.87;100168.19;4966451;28;20510;-42
2023/06/26 03:53:02;;;;;;;3.25;2.10;;;;;;;15.15;60.68;100178.66;4966169;28;20047;-41
2023/06/26 03:55:29;;;;;;;3.75;2.55;;;;;;;15.13;60.97;100181.31;4966083;28;20047;-42
2023/06/26 03:57:55;;;;;;;4.63;2.13;;;;;;;15.13;60.63;100185.69;4965409;28;20050;-42
2023/06/26 04:00:22;;;;;;;4.05;2.13;;;;;;;15.10;61.01;100197.00;4962093;28;20049;-43
2023/06/26 04:02:50;;;;;;;7.90;2.53;;;;;;;15.10;61.26;100201.38;4964177;28;20051;-42
2023/06/26 04:05:17;;;;;;;5.07;2.42;;;;;;;15.10;61.43;100201.38;4966804;28;20142;-42
2023/06/26 04:07:45;;;;;;;4.45;2.67;;;;;;;15.10;61.11;100204.84;4959725;28;20077;-42
2023/06/26 04:10:11;;;;;;;4.35;2.78;;;;;;;15.11;61.26;100203.09;4966118;28;20055;-42
2023/06/26 04:12:38;;;;;;;2.13;0.93;;;;;;;15.10;61.40;100197.00;4966851;28;20627;-41
2023/06/26 04:15:05;;;;;;;6.35;2.50;;;;;;;15.11;61.64;100209.19;4966885;28;20058;-41
2023/06/26 04:17:32;;;;;;;3.05;2.25;;;;;;;15.12;61.75;100205.69;4968991;28;20410;-42
2023/06/26 04:19:58;;;;;;;3.80;2.97;;;;;;;15.15;61.90;100217.81;4966315;28;20046;-42
2023/06/26 04:22:25;;;;;;;5.80;2.90;;;;;;;15.20;61.86;100217.72;4961179;28;20193;-42
2023/06/26 04:24:52;;;;;;;3.90;2.40;;;;;;;15.23;61.90;100212.44;4966394;28;20049;-41
2023/06/26 04:27:19;;;;;;;4.80;2.55;;;;;;;15.27;62.06;100225.38;4969768;28;20047;-41
2023/06/26 04:29:45;;;;;;;7.80;2.55;;;;;;;15.30;61.50;100221.84;4968090;28;20054;-42
2023/06/26 04:32:12;;;;;;;8.55;2.53;;;;;;;15.32;62.06;100222.69;4965863;28;20043;-42
2023/06/26 04:34:41;;;;;;;4.40;2.60;;;;;;;15.36;62.07;100233.91;4963740;28;20051;-42
2023/06/26 04:37:09;;;;;;;3.97;2.05;;;;;;;15.41;62.24;100235.56;4965851;28;20075;-42
2023/06/26 04:39:37;;;;;;;5.28;2.22;;;;;;;15.48;62.45;100232.81;4965456;28;20043;-41
2023/06/26 04:42:05;;;;;;;5.45;2.47;;;;;;;15.53;62.36;100230.97;4962365;28;20054;-42
2023/06/26 04:44:32;;;;;;;5.75;3.20;;;;;;;15.59;62.09;100238.69;4967713;28;20047;-42
2023/06/26 04:46:59;;;;;;;5.78;2.80;;;;;;;15.64;62.45;100243.81;4968292;28;20392;-42
2023/06/26 04:49:27;;;;;;;3.30;1.15;;;;;;;15.70;62.37;100242.84;4968459;28;20375;-42
2023/06/26 04:51:55;;;;;;;4.20;1.98;;;;;;;15.74;62.14;100244.50;4966918;28;20047;-42
2023/06/26 04:54:22;;;;;;;6.47;1.88;;;;;;;15.77;62.52;100249.66;4965755;28;20574;-41
2023/06/26 04:56:49;;;;;;;4.07;2.22;;;;;;;15.83;62.02;100249.50;4967972;28;20051;-42
2023/06/26 04:59:15;;;;;;;7.03;2.60;;;;;;;15.89;62.83;100244.16;4967864;28;20047;-42
2023/06/26 05:01:44;;;;;;;6.72;2.67;;;;;;;15.96;62.60;100249.28;4966740;28;20715;-42
2023/06/26 05:04:10;;;;;;;6.60;2.65;;;;;;;16.02;62.86;100255.25;4967325;28;20065;-41
2023/06/26 05:06:37;;;;;;;3.85;2.00;;;;;;;16.10;62.56;100247.22;4964209;28;20738;-42
2023/06/26 05:09:04;;;;;;;6.20;2.35;;;;;;;16.19;62.70;100256.59;4960303;28;20065;-41
2023/06/26 05:11:30;;;;;;;4.90;2.63;;;;;;;16.29;62.50;100257.25;4959821;28;20146;-42
2023/06/26 05:13:57;;;;;;;6.25;2.50;;;;;;;16.39;62.49;100261.38;4966401;28;20057;-42
2023/06/26 05:16:23;;;;;;;4.47;2.65;;;;;;;16.52;63.03;100264.53;4959419;28;20047;-42
2023/06/26 05:18:50;;;;;;;5.85;2.65;;;;;;;16.67;62.46;100265.94;4960766;28;20562;-41
2023/06/26 05:21:17;;;;;;;4.45;2.47;;;;;;;16.83;62.81;100265.56;4957250;28;20042;-42
2023/06/26 05:23:45;;;;;;;3.85;2.28;;;;;;;16.94;62.35;100271.38;4959492;28;20050;-44
2023/06/26 05:26:13;;;;;;;4.50;2.63;;;;;;;17.07;61.91;100271.06;4957848;28;20542;-41
2023/06/26 05:28:40;;;;;;;5.90;2.45;;;;;;;17.23;62.55;100281.13;4963057;28;20571;-42
2023/06/26 05:31:07;;;;;;;5.43;2.45;;;;;;;17.34;61.71;100276.47;4960503;28;20058;-42
2023/06/26 05:33:36;;;;;;;4.15;0.88;;;;;;;17.46;61.22;100278.75;4958598;28;20415;-44
2023/06/26 05:36:04;;;;;;;6.55;2.70;;;;;;;17.62;62.06;100273.06;4959039;28;20054;-42
2023/06/26 05:38:31;;;;;;;6.28;2.47;;;;;;;17.77;60.87;100276.16;4959622;28;20054;-42
2023/06/26 05:40:58;;;;;;;4.63;2.75;;;;;;;17.90;61.48;100287.16;4960990;28;20062;-44
2023/06/26 05:43:25;;;;;;;5.63;2.65;;;;;;;17.97;60.50;100284.28;4960391;28;20046;-41
2023/06/26 05:45:56;;;;;;;;;;;;;;;17.93;61.35;100287.06;4958363;28;20138;-42
2023/06/26 05:48:23;;;;;;;4.75;2.33;;;;;;;18.14;61.34;100295.19;4956691;28;19957;-43
2023/06/26 05:50:50;;;;;;;3.70;2.28;;;;;;;18.26;60.95;100291.31;4958640;28;20050;-44
2023/06/26 05:53:17;;;;;;;4.85;2.83;;;;;;;18.29;59.89;100299.09;4953755;28;20050;-43
2023/06/26 05:55:44;;;;;;;4.03;2.60;;;;;;;18.30;60.35;100306.09;4958076;28;20054;-42
2023/06/26 05:58:11;;;;;;;5.43;1.90;;;;;;;18.28;60.47;100308.75;4956657;28;20047;-42
2023/06/26 06:00:40;;;;;;;3.67;2.65;;;;;;;18.26;59.95;100309.69;4958186;28;20047;-42
2023/06/26 06:03:10;;;;;;;6.10;2.55;;;;;;;18.24;60.15;100312.38;4961149;28;20070;-42
2023/06/26 06:05:37;;;;;;;4.25;2.40;;;;;;;18.24;60.55;100312.38;4941992;28;20062;-41
2023/06/26 06:08:04;;;;;;;8.05;2.63;;;;;;;18.24;59.92;100318.47;4956226;28;20069;-43
2023/06/26 06:10:30;;;;;;;7.25;2.58;;;;;;;18.28;60.08;100318.38;4957775;28;20384;-42
2023/06/26 06:12:57;;;;;;;5.47;2.40;;;;;;;18.30;59.98;100324.44;4959174;28;20049;-45
2023/06/26 06:15:24;;;;;;;3.30;1.20;;;;;;;18.34;60.36;100329.53;4957443;28;21848;-42
2023/06/26 06:17:51;;;;;;;4.60;2.60;;;;;;;18.37;60.03;100333.81;4957819;28;20660;-43
2023/06/26 06:20:19;;;;;;;3.85;2.45;;;;;;;18.37;60.40;100332.06;4955305;28;20130;-42
2023/06/26 06:22:48;;;;;;;6.57;2.60;;;;;;;18.39;60.12;100342.50;4959420;28;20051;-41
2023/06/26 06:25:15;;;;;;;6.07;2.40;;;;;;;18.42;59.92;100337.16;4965024;28;20744;-43
2023/06/26 06:27:42;;;;;;;3.97;2.17;;;;;;;18.43;59.29;100336.25;4962165;28;20364;-42
2023/06/26 06:30:09;;;;;;;5.20;2.50;;;;;;;18.46;59.67;100336.16;4962529;28;20051;-43
2023/06/26 06:32:36;;;;;;;8.35;2.92;;;;;;;18.59;60.03;100343.63;4952911;28;20051;-42
2023/06/26 06:35:09;;;;;;;7.05;2.17;;;;;;;18.78;60.72;100332.56;4962914;28;20051;-43
2023/06/26 06:37:37;;;;;;;9.32;3.65;;;;;;;19.04;61.09;100339.56;4954702;28;20063;-42
2023/06/26 06:40:06;;;;;;;4.30;2.90;;;;;;;19.29;60.46;100343.16;4952798;28;20057;-42
2023/06/26 06:42:34;;;;;;;3.90;2.63;;;;;;;19.53;60.63;100334.41;4957997;28;20043;-42
2023/06/26 06:45:02;;;;;;;2.88;2.10;;;;;;;19.78;60.29;100333.53;4959700;28;20047;-43
2023/06/26 06:47:29;;;;;;;4.30;2.15;;;;;;;20.00;59.59;100340.63;4957177;28;20102;-42
2023/06/26 06:49:56;;;;;;;5.00;3.63;;;;;;;20.18;59.11;100343.50;4958143;28;20058;-42
2023/06/26 06:52:23;;;;;;;4.72;2.28;;;;;;;20.39;58.58;100346.19;4956906;28;20101;-43
2023/06/26 06:54:52;;;;;;;4.57;2.05;;;;;;;20.60;58.16;100354.19;4958041;28;20062;-43
2023/06/26 06:57:20;;;;;;;3.70;2.42;;;;;;;20.78;57.98;100353.41;4938855;28;20047;-44
2023/06/26 06:59:48;;;;;;;5.13;2.08;;;;;;;21.04;57.52;100363.84;4957607;28;20051;-42
2023/06/26 07:02:17;;;;;;;6.20;2.08;;;;;;;21.30;57.38;100362.75;4956258;28;20089;-43
2023/06/26 07:04:44;;;;;;;4.20;2.38;;;;;;;21.55;57.04;100369.56;4962146;28;20129;-43
2023/06/26 07:07:13;;;;;;;2.97;2.03;;;;;;;21.77;55.88;100373.94;4955540;28;20047;-43
2023/06/26 07:09:40;;;;;;;3.65;2.03;;;;;;;21.97;55.73;100372.16;4953201;28;20051;-43
2023/06/26 07:12:07;;;;;;;5.32;2.47;;;;;;;22.15;55.33;100375.75;4958062;28;20051;-43
2023/06/26 07:14:33;;;;;;;3.35;2.10;;;;;;;22.31;54.51;100375.91;4957541;28;20091;-45
2023/06/26 07:17:00;;;;;;;6.28;2.80;;;;;;;22.47;54.61;100383.91;4957121;28;20043;-42
2023/06/26 07:19:26;;;;;;;2.92;1.88;;;;;;;22.69;54.66;100388.22;4959373;28;20051;-43
2023/06/26 07:21:53;;;;;;;4.32;2.13;;;;;;;22.81;53.85;100392.06;4956793;28;20094;-44
2023/06/26 07:24:20;;;;;;;3.72;2.45;;;;;;;22.90;52.47;100379.31;4957999;28;20057;-43
2023/06/26 07:26:47;;;;;;;2.15;1.95;;;;;;;22.98;52.36;100398.28;4959880;28;20491;-43
2023/06/26 07:29:16;;;;;;;;;;;;;;;22.95;52.04;100393.16;4958115;28;20066;-43
2023/06/26 07:31:45;;;;;;;3.63;2.33;;;;;;;23.21;52.73;100383.06;4954561;28;19925;-44
2023/06/26 07:34:12;;;;;;;3.40;1.10;;;;;;;23.42;52.13;100396.16;4966244;28;20422;-43
2023/06/26 07:36:38;;;;;;;6.32;2.17;;;;;;;23.53;51.24;100399.09;4966128;28;20061;-44
2023/06/26 07:39:05;;;;;;;3.35;2.17;;;;;;;23.67;51.00;100397.53;4962444;28;20102;-43
2023/06/26 07:41:32;;;;;;;6.30;2.05;;;;;;;23.85;50.58;100393.91;4964122;28;20054;-44
2023/06/26 07:43:59;;;;;;;4.20;2.40;;;;;;;24.01;50.14;100401.00;4964878;28;20191;-45
2023/06/26 07:46:25;;;;;;;2.72;2.50;;;;;;;24.21;50.47;100407.06;4967133;28;20051;-42
2023/06/26 07:48:52;;;;;;;3.13;2.22;;;;;;;24.36;49.71;100398.28;4970246;28;20077;-43
2023/06/26 07:51:21;;;;;;;;;;;;;;;24.34;50.06;100400.16;4968174;28;20730;-43
2023/06/26 07:53:48;;;;;;;6.38;2.13;;;;;;;24.36;48.82;100402.72;4964431;28;19961;-44
2023/06/26 07:56:15;;;;;;;3.83;2.17;;;;;;;24.23;48.83;100397.25;4967472;28;20046;-43
2023/06/26 07:58:41;;;;;;;4.97;2.90;;;;;;;24.24;48.36;100393.66;4968860;28;20057;-45
2023/06/26 08:01:08;;;;;;;2.45;2.25;;;;;;;24.32;48.09;100401.19;4967069;28;20054;-43
2023/06/26 08:03:35;;;;;;;6.63;2.08;;;;;;;24.23;48.49;100403.41;4968114;28;20050;-45
2023/06/26 08:06:03;;;;;;;2.75;2.25;;;;;;;24.18;47.82;100409.88;4966189;28;20054;-44
2023/06/26 08:08:30;;;;;;;4.70;1.92;;;;;;;24.20;48.22;100408.84;4970141;28;20042;-46
2023/06/26 08:10:56;;;;;;;4.32;2.72;;;;;;;24.35;48.26;100411.59;4966107;28;20116;-43
2023/06/26 08:13:23;;;;;;;4.43;2.40;;;;;;;24.49;47.71;100410.84;4963060;28;20043;-44
2023/06/26 08:15:50;;;;;;;3.38;2.65;;;;;;;24.49;47.48;100408.19;4963343;28;20051;-45
2023/06/26 08:18:18;;;;;;;2.63;1.83;;;;;;;24.38;46.18;100412.28;4963173;28;20065;-43
2023/06/26 08:20:44;;;;;;;2.15;2.00;;;;;;;24.22;45.85;100400.84;4958896;28;20075;-44
2023/06/26 08:23:11;;;;;;;4.32;2.78;;;;;;;24.15;45.57;100400.31;4962460;28;20052;-43
2023/06/26 08:25:38;;;;;;;5.80;2.40;;;;;;;24.00;45.66;100412.53;4959814;28;20054;-44
2023/06/26 08:28:04;;;;;;;2.85;2.15;;;;;;;23.91;46.46;100413.03;4963429;28;20043;-44
2023/06/26 08:30:32;;;;;;;3.33;0.75;;;;;;;23.88;45.25;100414.06;4961398;28;20798;-43
2023/06/26 08:32:58;;;;;;;3.03;2.72;;;;;;;23.75;45.30;100409.41;4972877;28;20053;-44
2023/06/26 08:35:25;;;;;;;2.60;2.10;;;;;;;23.68;45.71;100407.16;4967340;28;20080;-45
2023/06/26 08:37:54;;;;;;;3.70;3.03;;;;;;;23.70;45.96;100405.28;4961072;28;20055;-46
2023/06/26 08:40:21;;;;;;;3.53;1.75;;;;;;;23.76;45.43;100404.97;4964062;28;20133;-43
2023/06/26 08:42:52;;;;;;;3.80;2.85;;;;;;;23.80;45.27;100405.66;4966918;28;20054;-45
2023/06/26 08:45:20;;;;;;;5.22;2.33;;;;;;;23.83;45.24;100416.06;4967514;28;20082;-45
2023/06/26 08:47:51;;;;;;;5.00;2.33;;;;;;;24.12;46.52;100421.66;4963579;28;20047;-43
2023/06/26 08:50:19;;;;;;;4.93;2.38;;;;;;;24.47;45.57;100412.69;4969111;28;20043;-43
2023/06/26 08:52:56;;;;;;;4.55;1.45;;;;;;;24.57;44.86;100418.34;4968842;28;20055;-43
2023/06/26 08:55:25;;;;;;;2.70;2.33;;;;;;;24.60;44.19;100415.53;4958920;28;20046;-46
2023/06/26 08:57:53;;;;;;;;;;;;;;;24.54;44.35;100422.00;4968572;28;20046;-43
2023/06/26 09:00:20;;;;;;;5.60;1.92;;;;;;;24.54;43.95;100424.66;4959575;28;19984;-44
2023/06/26 09:02:47;;;;;;;3.13;2.15;;;;;;;24.44;44.23;100426.97;4960847;28;20391;-42
2023/06/26 09:05:14;;;;;;;4.25;2.38;;;;;;;24.36;43.69;100419.47;4961690;28;20055;-42
2023/06/26 09:07:41;;;;;;;3.03;1.80;;;;;;;24.49;43.95;100422.25;4963526;28;20050;-45
2023/06/26 09:10:08;;;;;;;3.72;1.88;;;;;;;24.78;44.49;100426.84;4967938;28;20081;-45
2023/06/26 09:12:36;;;;;;;4.03;1.77;;;;;;;25.16;44.07;100429.13;4960213;28;20700;-45
2023/06/26 09:15:05;;;;;;;5.65;2.08;;;;;;;25.35;43.55;100421.91;4963121;28;20108;-46
2023/06/26 09:17:39;;;;;;;3.15;2.15;;;;;;;25.45;42.63;100422.19;4979074;28;20145;-44
2023/06/26 09:20:07;;;;;;;2.53;1.55;;;;;;;25.64;43.00;100427.28;4967290;28;20105;-43
2023/06/26 09:22:40;;;;;;;3.08;2.33;;;;;;;25.77;42.42;100422.94;4962298;28;20058;-43
2023/06/26 09:25:07;;;;;;;5.10;2.25;;;;;;;25.76;42.09;100428.34;4959632;28;20053;-43
2023/06/26 09:27:36;;;;;;;2.63;2.08;;;;;;;25.76;41.70;100429.19;4966034;28;20054;-42
2023/06/26 09:30:06;;;;;;;4.18;0.88;;;;;;;25.71;41.85;100443.69;4966497;28;20438;-44
2023/06/26 09:32:36;;;;;;;3.03;2.35;;;;;;;25.71;41.46;100441.91;4964598;28;20062;-43
2023/06/26 09:35:04;;;;;;;2.45;1.73;;;;;;;25.76;41.75;100436.28;4961907;28;20046;-44
2023/06/26 09:37:31;;;;;;;3.42;1.95;;;;;;;25.78;40.93;100434.41;4966097;28;20047;-44
2023/06/26 09:39:57;;;;;;;3.63;2.63;;;;;;;25.77;40.61;100432.72;4964577;28;20062;-44
2023/06/26 09:42:24;;;;;;;3.78;1.95;;;;;;;25.84;40.72;100442.00;4966327;28;20054;-43
2023/06/26 09:44:51;;;;;;;4.57;2.30;;;;;;;25.98;40.63;100442.94;4966684;28;20057;-43
2023/06/26 09:47:19;;;;;;;2.15;1.95;;;;;;;26.11;40.71;100448.34;4967041;28;20082;-43
2023/06/26 09:49:47;;;;;;;3.30;1.58;;;;;;;26.17;39.77;100446.16;4963877;28;20140;-43
2023/06/26 09:52:16;;;;;;;5.47;2.42;;;;;;;26.18;39.44;100447.03;4964814;28;20054;-44
2023/06/26 09:54:44;;;;;;;2.65;1.70;;;;;;;26.23;40.30;100450.22;4962600;28;20051;-43
2023/06/26 09:57:13;;;;;;;7.60;3.05;;;;;;;26.43;39.88;100446.34;4964093;28;20051;-44
2023/06/26 09:59:40;;;;;;;5.68;2.33;;;;;;;26.56;39.94;100448.22;4966186;28;20055;-44
2023/06/26 10:02:07;;;;;;;6.30;2.17;;;;;;;26.73;39.96;100460.44;4963779;28;20054;-44
2023/06/26 10:04:35;;;;;;;3.70;1.92;;;;;;;26.92;39.65;100470.69;4966813;28;20051;-42
2023/06/26 10:07:05;;;;;;;3.97;2.05;;;;;;;26.99;37.65;100462.38;4963871;28;20589;-44
2023/06/26 10:09:32;;;;;;;3.03;1.67;;;;;;;27.05;37.62;100459.31;4960685;28;20078;-44
2023/06/26 10:12:04;;;;;;;3.67;3.47;;;;;;;27.11;38.10;100456.22;4963913;28;20082;-43
2023/06/26 10:14:35;;;;;;;3.40;2.00;;;;;;;27.10;37.85;100462.50;4959614;28;20118;-44
2023/06/26 10:17:06;;;;;;;3.47;2.92;;;;;;;27.20;38.77;100474.25;4959911;28;20141;-44
2023/06/26 10:19:35;;;;;;;2.63;1.90;;;;;;;27.37;38.75;100476.72;4966795;28;20043;-45
2023/06/26 10:22:03;;;;;;;5.45;3.05;;;;;;;27.43;37.62;100471.81;4952169;28;20057;-43
2023/06/26 10:24:34;;;;;;;4.25;1.98;;;;;;;27.57;37.65;100473.56;4968636;28;20062;-46
2023/06/26 10:27:08;;;;;;;2.88;2.15;;;;;;;27.66;37.33;100471.28;4970270;28;20077;-46
2023/06/26 10:29:36;;;;;;;2.97;2.30;;;;;;;27.68;36.60;100466.69;4965541;28;20062;-43
2023/06/26 10:32:06;;;;;;;2.72;1.98;;;;;;;27.82;37.61;100465.72;4965119;28;20047;-44
2023/06/26 10:34:33;;;;;;;2.45;0.70;;;;;;;27.97;37.75;100477.97;4966822;28;20463;-44
2023/06/26 10:37:03;;;;;;;4.38;1.67;;;;;;;28.18;37.83;100482.75;4969194;28;20047;-44
2023/06/26 10:42:40;;;;;;;4.25;0.88;;;;;;;28.45;37.20;100484.44;5009464;27;20400;-44
2023/06/26 10:45:16;;;;;;;4.18;0.80;;;;;;;28.56;36.99;100488.13;5012051;28;20060;-41
2023/06/26 10:47:46;;;;;;;3.30;1.00;;;;;;;28.60;37.36;100492.28;5020071;28;20133;-43
2023/06/26 10:50:19;;;;;;;2.95;0.63;;;;;;;28.57;35.92;100492.53;5021708;28;20108;-45
2023/06/26 10:55:59;;;;;;;2.00;0.68;;;;;;;28.72;36.78;100486.06;5046805;28;20407;-45
2023/06/26 11:01:23;;;;;;;2.90;1.08;;;;;;;28.85;36.06;100486.00;5098776;27;20408;-42
2023/06/26 11:06:35;;;;;;;1.60;1.00;;;;;;;28.59;35.32;100495.91;5022703;27;20398;-43
2023/06/26 11:12:04;;;;;;;3.97;1.73;;;;;;;28.01;34.88;100485.75;5036627;27;20391;-42
2023/06/26 11:14:32;;;;;;;2.83;1.45;;;;;;;27.93;36.33;100489.78;5050804;28;20060;-44
2023/06/26 11:17:01;;;;;;;1.98;1.45;;;;;;;27.79;36.17;100490.75;5021211;28;20065;-42
2023/06/26 11:19:28;;;;;;;2.22;1.30;;;;;;;27.63;36.14;100498.94;5018697;28;20082;-43
2023/06/26 11:22:04;;;;;;;3.33;1.73;;;;;;;27.61;36.66;100490.16;5019590;28;20057;-42
2023/06/26 11:24:31;;;;;;;;;;;;;;;27.28;36.29;100489.66;5018276;28;20165;-41
2023/06/26 11:27:00;;;;;;;3.60;1.40;;;;;;;27.41;36.42;100497.69;5022052;28;19927;-43
2023/06/26 11:29:27;;;;;;;5.53;3.10;;;;;;;27.16;36.07;100495.81;5022036;28;20042;-42
2023/06/26 11:31:59;;;;;;;4.38;1.60;;;;;;;27.04;37.08;100502.78;5021103;28;20505;-42
2023/06/26 11:34:31;;;;;;;2.22;1.75;;;;;;;27.02;36.94;100499.38;5024351;28;20055;-45
2023/06/26 11:37:01;;;;;;;2.10;1.92;;;;;;;26.95;37.11;100494.41;5014034;28;20049;-42
2023/06/26 11:39:27;;;;;;;3.10;1.92;;;;;;;27.12;38.16;100489.81;5020910;28;20133;-43
2023/06/26 11:41:54;;;;;;;3.08;2.50;;;;;;;27.41;37.66;100495.03;5016759;28;20556;-43
2023/06/26 11:44:21;;;;;;;3.75;1.75;;;;;;;27.65;37.40;100497.00;5022680;28;20041;-43
2023/06/26 11:46:51;;;;;;;3.40;2.78;;;;;;;27.75;36.73;100491.03;5022908;28;20049;-42
2023/06/26 11:49:18;;;;;;;4.10;0.98;;;;;;;27.56;35.73;100503.78;5019816;28;21223;-42
2023/06/26 11:51:46;;;;;;;2.55;1.92;;;;;;;27.35;36.01;100495.44;5016671;28;20057;-43
2023/06/26 11:54:14;;;;;;;3.15;1.98;;;;;;;27.07;36.38;100502.56;5013277;28;20041;-42